createdAt,value
2023-01-09T00:02:25.064Z,99333.50
2023-01-09T00:09:56.853Z,99327.22
2023-01-09T00:17:28.625Z,99334.66
2023-01-09T00:25:00.359Z,99336.09
2023-01-09T00:32:32.298Z,99318.81
2023-01-09T00:40:04.213Z,99307.09
2023-01-09T00:47:42.802Z,99286.28
2023-01-09T00:55:14.654Z,99287.13
2023-01-09T01:02:46.533Z,99271.78
2023-01-09T01:10:22.187Z,99273.41
2023-01-09T01:17:54.033Z,99273.09
2023-01-09T01:25:25.829Z,99264.03
2023-01-09T01:32:57.646Z,99254.25
2023-01-09T01:40:29.921Z,99259.72
2023-01-09T01:48:37.175Z,99250.69
2023-01-09T01:56:26.466Z,99238.94
2023-01-09T02:03:58.462Z,99227.97
2023-01-09T02:11:30.236Z,99205.28
2023-01-09T02:19:42.321Z,99227.97
2023-01-09T02:27:24.117Z,99224.72
2023-01-09T02:35:02.430Z,99220.72
2023-01-09T02:42:34.195Z,99225.53
2023-01-09T02:50:09.799Z,99227.78
2023-01-09T02:58:09.326Z,99221.97
2023-01-09T03:05:51.426Z,99210.56
2023-01-09T03:13:24.900Z,99200.25
2023-01-09T03:20:56.709Z,99196.38
2023-01-09T03:28:28.983Z,99193.63
2023-01-09T03:36:00.806Z,99176.06
2023-01-09T03:43:32.609Z,99153.69
2023-01-09T03:51:04.423Z,99145.47
2023-01-09T03:58:36.239Z,99150.13
2023-01-09T04:06:08.045Z,99148.56
2023-01-09T04:13:39.859Z,99144.66
2023-01-09T04:21:11.679Z,99123.41
2023-01-09T04:28:43.391Z,99135.66
2023-01-09T04:36:15.159Z,99125.34
2023-01-09T04:43:46.910Z,99116.00
2023-01-09T04:51:18.663Z,99119.88
2023-01-09T04:58:50.421Z,99110.50
2023-01-09T05:06:22.155Z,99099.88
2023-01-09T05:13:53.964Z,99106.97
2023-01-09T05:21:25.760Z,99098.59
2023-01-09T05:28:57.570Z,99083.78
2023-01-09T05:36:29.718Z,99096.34
2023-01-09T05:44:07.577Z,99078.31
2023-01-09T05:51:39.377Z,99068.50
2023-01-09T05:59:11.136Z,99069.75
2023-01-09T06:06:42.963Z,99068.97
2023-01-09T06:14:14.738Z,99055.94
2023-01-09T06:21:46.525Z,99056.28
2023-01-09T06:29:18.408Z,99048.06
2023-01-09T06:36:50.197Z,99046.47
2023-01-09T06:44:21.945Z,99039.38
2023-01-09T06:51:53.698Z,99038.56
2023-01-09T06:59:25.616Z,99036.28
2023-01-09T07:06:57.330Z,99035.84
2023-01-09T07:14:29.087Z,99019.75
2023-01-09T07:22:00.834Z,99018.59
2023-01-09T07:29:32.596Z,99020.53
2023-01-09T07:37:04.379Z,99032.28
2023-01-09T07:44:36.237Z,99035.34
2023-01-09T07:52:08.196Z,99034.56
2023-01-09T07:59:40.077Z,99035.84
2023-01-09T08:07:11.890Z,99052.72
2023-01-09T08:14:43.662Z,99057.06
2023-01-09T08:22:15.449Z,99060.59
2023-01-09T08:29:47.197Z,99060.59
2023-01-09T08:37:18.937Z,99055.94
2023-01-09T08:45:09.207Z,99063.00
2023-01-09T08:52:40.949Z,99062.56
2023-01-09T09:00:13.879Z,99089.94
2023-01-09T09:07:56.374Z,99076.91
2023-01-09T09:15:28.682Z,99078.50
2023-01-09T09:23:00.511Z,99078.50
2023-01-09T09:30:32.347Z,99083.19
2023-01-09T09:38:05.552Z,99106.53
2023-01-09T09:45:55.339Z,99098.31
2023-01-09T09:53:51.974Z,99107.34
2023-01-09T10:01:45.629Z,99118.31
2023-01-09T10:10:00.586Z,99115.56
2023-01-09T10:18:12.253Z,99113.63
2023-01-09T10:26:01.458Z,99118.31
2023-01-09T10:33:48.237Z,99141.78
2023-01-09T10:41:24.055Z,99141.00
2023-01-09T10:48:59.652Z,99130.06
2023-01-09T10:56:34.379Z,99145.38
2023-01-09T11:04:20.649Z,99163.72
2023-01-09T11:11:52.886Z,99175.28
2023-01-09T11:19:25.638Z,99165.13
2023-01-09T11:27:12.625Z,99182.19
2023-01-09T11:34:45.157Z,99180.75
2023-01-09T11:42:47.198Z,99206.34
2023-01-09T11:50:24.923Z,99212.00
2023-01-09T11:57:56.831Z,99203.44
2023-01-09T12:05:53.312Z,99230.19
2023-01-09T12:13:53.287Z,99230.19
2023-01-09T12:21:46.042Z,99255.34
2023-01-09T12:29:26.996Z,99251.59
2023-01-09T12:37:01.793Z,99235.94
2023-01-09T12:44:57.756Z,99250.13
2023-01-09T12:52:34.784Z,99257.25
2023-01-09T13:00:18.885Z,99252.56
2023-01-09T13:08:02.163Z,99252.72
2023-01-09T13:15:39.708Z,99270.94
2023-01-09T13:23:56.352Z,99267.53
2023-01-09T13:31:41.707Z,99261.72
2023-01-09T13:39:39.814Z,99257.53
2023-01-09T13:47:35.677Z,99257.53
2023-01-09T13:55:16.441Z,99278.31
2023-01-09T14:02:49.799Z,99296.69
2023-01-09T14:10:42.024Z,99315.06
2023-01-09T14:18:23.935Z,99332.66
2023-01-09T14:25:55.803Z,99342.00
2023-01-09T14:33:29.916Z,99349.91
2023-01-09T14:41:46.249Z,99368.78
2023-01-09T14:49:32.085Z,99385.53
2023-01-09T14:57:03.992Z,99392.47
2023-01-09T15:04:36.349Z,99385.38
2023-01-09T15:12:09.492Z,99396.81
2023-01-09T15:19:44.303Z,99399.53
2023-01-09T15:27:16.466Z,99417.59
2023-01-09T15:34:48.522Z,99428.56
2023-01-09T15:42:44.304Z,99421.97
2023-01-09T15:50:26.773Z,99427.91
2023-01-09T15:57:58.730Z,99437.75
2023-01-09T16:05:32.943Z,99463.53
2023-01-09T16:13:04.756Z,99458.06
2023-01-09T16:20:36.780Z,99474.50
2023-01-09T16:28:27.125Z,99461.94
2023-01-09T16:35:59.078Z,99470.63
2023-01-09T16:43:30.812Z,99469.03
2023-01-09T16:51:02.616Z,99490.94
2023-01-09T16:58:35.343Z,99503.84
2023-01-09T17:06:07.511Z,99492.56
2023-01-09T17:13:39.262Z,99492.56
2023-01-09T17:21:23.170Z,99483.56
2023-01-09T17:28:54.935Z,99494.19
2023-01-09T17:36:32.166Z,99495.81
2023-01-09T17:44:04.354Z,99508.34
2023-01-09T17:51:36.111Z,99519.31
2023-01-09T17:59:10.012Z,99518.53
2023-01-09T18:06:41.868Z,99530.28
2023-01-09T18:14:14.060Z,99539.66
2023-01-09T18:21:46.753Z,99546.72
2023-01-09T18:29:19.262Z,99550.63
2023-01-09T18:36:51.063Z,99561.59
2023-01-09T18:44:23.287Z,99574.78
2023-01-09T18:51:55.337Z,99573.69
2023-01-09T18:59:27.055Z,99594.81
2023-01-09T19:06:59.864Z,99606.25
2023-01-09T19:14:31.587Z,99608.16
2023-01-09T19:22:03.503Z,99612.31
2023-01-09T19:29:36.870Z,99616.03
2023-01-09T19:37:09.568Z,99629.88
2023-01-09T19:44:41.424Z,99634.25
2023-01-09T19:52:14.642Z,99634.44
2023-01-09T19:59:46.400Z,99636.03
2023-01-09T20:07:18.161Z,99634.91
2023-01-09T20:14:50.002Z,99636.53
2023-01-09T20:22:23.965Z,99660.53
2023-01-09T20:29:55.800Z,99658.31
2023-01-09T20:37:27.542Z,99670.88
2023-01-09T20:44:59.614Z,99672.50
2023-01-09T20:52:31.354Z,99700.72
2023-01-09T21:00:04.440Z,99697.66
2023-01-09T21:07:36.197Z,99706.34
2023-01-09T21:15:09.722Z,99708.63
2023-01-09T21:22:41.574Z,99738.94
2023-01-09T21:30:13.469Z,99761.19
2023-01-09T21:37:45.237Z,99769.09
2023-01-09T21:45:35.632Z,99783.09
2023-01-09T21:53:07.984Z,99794.59
2023-01-09T22:00:41.022Z,99798.91
2023-01-09T22:08:12.806Z,99826.31
2023-01-09T22:15:46.050Z,99845.53
2023-01-09T22:23:17.766Z,99849.09
2023-01-09T22:30:49.529Z,99864.72
2023-01-09T22:38:21.296Z,99886.03
2023-01-09T22:45:53.032Z,99890.38
2023-01-09T22:53:24.808Z,99900.22
2023-01-09T23:00:56.612Z,99906.81
2023-01-09T23:08:29.120Z,99921.34
2023-01-09T23:16:01.757Z,99931.50
2023-01-09T23:23:33.532Z,99944.09
2023-01-09T23:31:05.326Z,99951.81
2023-01-09T23:38:37.120Z,99953.75
2023-01-09T23:46:08.929Z,99962.78
2023-01-09T23:53:40.701Z,99975.34
